createdAt,value
2023-02-09T00:04:38.240Z,101210.69
2023-02-09T00:09:40.385Z,101218.47
2023-02-09T00:14:42.542Z,101202.84
2023-02-09T00:19:44.648Z,101202.72
2023-02-09T00:24:46.737Z,101192.13
2023-02-09T00:29:48.856Z,101184.34
2023-02-09T00:34:53.017Z,101175.91
2023-02-09T00:39:56.008Z,101176.06
2023-02-09T00:44:58.184Z,101184.66
2023-02-09T00:50:00.361Z,101172.19
2023-02-09T00:55:05.780Z,101165.97
2023-02-09T01:00:08.730Z,101159.75
2023-02-09T01:05:12.156Z,101137.63
2023-02-09T01:10:14.381Z,101165.91
2023-02-09T01:15:16.652Z,101169.28
2023-02-09T01:20:19.516Z,101163.16
2023-02-09T01:25:21.787Z,101157.84
2023-02-09T01:30:23.893Z,101136.63
2023-02-09T01:35:26.128Z,101150.72
2023-02-09T01:40:28.280Z,101155.94
2023-02-09T01:45:47.146Z,101157.84
2023-02-09T01:50:51.105Z,101155.84
2023-02-09T01:55:59.621Z,101145.34
2023-02-09T02:01:01.752Z,101142.38
2023-02-09T02:06:10.861Z,101124.25
2023-02-09T02:11:13.320Z,101149.94
2023-02-09T02:16:15.322Z,101156.94
2023-02-09T02:21:26.205Z,101170.00
2023-02-09T02:26:43.921Z,101160.16
2023-02-09T02:32:10.108Z,101170.53
2023-02-09T02:37:18.005Z,101168.22
2023-02-09T02:42:53.392Z,101171.81
2023-02-09T02:48:04.530Z,101167.75
2023-02-09T02:53:09.592Z,101168.84
2023-02-09T02:58:14.386Z,101166.66
2023-02-09T03:03:22.068Z,101161.13
2023-02-09T03:08:24.104Z,101162.44
2023-02-09T03:14:14.154Z,101148.94
2023-02-09T03:19:45.406Z,101154.59
2023-02-09T03:24:53.502Z,101145.00
2023-02-09T03:30:01.100Z,101141.91
2023-02-09T03:35:05.451Z,101144.06
2023-02-09T03:40:08.395Z,101148.44
2023-02-09T03:45:10.377Z,101144.84
2023-02-09T03:50:12.477Z,101141.22
2023-02-09T03:55:14.582Z,101140.28
2023-02-09T04:00:17.539Z,101143.59
2023-02-09T04:05:20.094Z,101137.38
2023-02-09T04:10:22.290Z,101144.03
2023-02-09T04:15:24.293Z,101137.66
2023-02-09T04:20:26.314Z,101136.41
2023-02-09T04:25:28.317Z,101133.72
2023-02-09T04:30:30.392Z,101117.09
2023-02-09T04:35:32.425Z,101128.47
2023-02-09T04:40:34.446Z,101143.34
2023-02-09T04:45:38.780Z,101135.13
2023-02-09T04:50:40.944Z,101133.63
2023-02-09T04:55:45.310Z,101135.25
2023-02-09T05:00:47.639Z,101124.41
2023-02-09T05:05:49.944Z,101144.44
2023-02-09T05:10:53.046Z,101120.66
2023-02-09T05:15:55.681Z,101134.59
2023-02-09T05:20:57.755Z,101124.81
2023-02-09T05:25:59.864Z,101132.56
2023-02-09T05:31:01.936Z,101140.16
2023-02-09T05:36:09.549Z,101145.22
2023-02-09T05:41:33.340Z,101139.34
2023-02-09T05:46:35.436Z,101131.75
2023-02-09T05:51:37.521Z,101128.97
2023-02-09T05:56:40.890Z,101140.13
2023-02-09T06:01:43.267Z,101126.00
2023-02-09T06:06:45.444Z,101123.97
2023-02-09T06:11:47.772Z,101145.44
2023-02-09T06:16:49.848Z,101126.09
2023-02-09T06:21:51.878Z,101136.31
2023-02-09T06:26:54.070Z,101128.34
2023-02-09T06:31:56.329Z,101112.56
2023-02-09T06:36:58.412Z,101127.44
2023-02-09T06:42:00.434Z,101116.03
2023-02-09T06:47:02.546Z,101117.22
2023-02-09T06:52:04.896Z,101111.44
2023-02-09T06:57:06.907Z,101118.63
2023-02-09T07:02:11.259Z,101118.06
2023-02-09T07:07:13.351Z,101126.41
2023-02-09T07:12:15.468Z,101119.28
2023-02-09T07:17:17.542Z,101129.22
2023-02-09T07:22:19.558Z,101118.06
2023-02-09T07:27:21.696Z,101118.13
2023-02-09T07:32:24.551Z,101130.72
2023-02-09T07:37:26.708Z,101119.16
2023-02-09T07:42:28.901Z,101108.19
2023-02-09T07:47:35.870Z,101109.53
2023-02-09T07:52:38.026Z,101103.34
2023-02-09T07:57:40.405Z,101110.69
2023-02-09T08:02:44.594Z,101114.97
2023-02-09T08:07:46.841Z,101114.22
2023-02-09T08:12:59.892Z,101111.81
2023-02-09T08:18:09.304Z,101105.22
2023-02-09T08:23:18.857Z,101101.50
2023-02-09T08:28:27.047Z,101096.34
2023-02-09T08:33:33.973Z,101109.66
2023-02-09T08:38:36.085Z,101111.00
2023-02-09T08:43:38.316Z,101106.75
2023-02-09T08:48:44.365Z,101118.63
2023-02-09T08:53:52.369Z,101107.47
2023-02-09T08:58:54.626Z,101096.44
2023-02-09T09:03:57.521Z,101095.69
2023-02-09T09:08:59.690Z,101103.56
2023-02-09T09:14:01.889Z,101099.66
2023-02-09T09:19:05.490Z,101090.69
2023-02-09T09:24:07.585Z,101099.84
2023-02-09T09:29:10.840Z,101100.66
2023-02-09T09:34:12.931Z,101100.56
2023-02-09T09:39:15.014Z,101093.03
2023-02-09T09:44:27.786Z,101087.75
2023-02-09T09:49:31.969Z,101090.09
2023-02-09T09:54:36.604Z,101079.88
2023-02-09T09:59:38.863Z,101056.84
2023-02-09T10:04:40.954Z,101064.28
2023-02-09T10:09:48.443Z,101060.81
2023-02-09T10:14:50.487Z,101060.91
2023-02-09T10:20:04.589Z,101057.63
2023-02-09T10:25:37.531Z,101046.38
2023-02-09T10:30:39.644Z,101055.25
2023-02-09T10:35:46.453Z,101044.41
2023-02-09T10:40:50.074Z,101039.66
2023-02-09T10:45:58.882Z,101044.69
2023-02-09T10:51:14.296Z,101037.28
2023-02-09T10:56:22.186Z,101027.66
2023-02-09T11:01:28.761Z,101023.63
2023-02-09T11:06:43.980Z,101022.47
2023-02-09T11:11:46.232Z,101019.69
2023-02-09T11:17:16.256Z,101012.56
2023-02-09T11:22:34.581Z,101008.91
2023-02-09T11:27:42.152Z,101016.78
2023-02-09T11:33:06.893Z,101005.59
2023-02-09T11:38:17.153Z,101013.88
2023-02-09T11:43:27.153Z,101003.97
2023-02-09T11:48:38.957Z,101007.34
2023-02-09T11:54:12.017Z,101006.56
2023-02-09T11:59:37.222Z,101003.75
2023-02-09T12:04:42.337Z,100979.72
2023-02-09T12:09:55.550Z,100997.22
2023-02-09T12:15:17.553Z,101001.63
2023-02-09T12:20:46.030Z,101000.19
2023-02-09T12:25:55.651Z,100996.38
2023-02-09T12:30:57.666Z,100985.78
2023-02-09T12:36:24.577Z,100993.94
2023-02-09T12:41:35.400Z,100980.72
2023-02-09T12:46:48.217Z,100986.34
2023-02-09T12:51:56.403Z,100990.34
2023-02-09T12:57:22.397Z,100982.97
2023-02-09T13:02:26.294Z,100985.28
2023-02-09T13:07:34.485Z,100975.75
2023-02-09T13:12:42.731Z,100974.63
2023-02-09T13:18:09.962Z,100960.31
2023-02-09T13:23:36.151Z,100976.13
2023-02-09T13:28:38.341Z,100970.78
2023-02-09T13:33:48.544Z,100968.19
2023-02-09T13:38:50.956Z,100962.72
2023-02-09T13:43:53.022Z,100960.22
2023-02-09T13:49:09.257Z,100963.47
2023-02-09T13:54:21.027Z,100958.53
2023-02-09T13:59:23.082Z,100947.84
2023-02-09T14:04:30.026Z,100941.13
2023-02-09T14:09:46.438Z,100941.22
2023-02-09T14:15:15.326Z,100931.00
2023-02-09T14:20:24.995Z,100927.63
2023-02-09T14:25:29.008Z,100935.41
2023-02-09T14:30:36.339Z,100925.78
2023-02-09T14:35:41.273Z,100921.47
2023-02-09T14:40:43.315Z,100907.63
2023-02-09T14:45:49.401Z,100907.91
2023-02-09T14:50:57.902Z,100899.47
2023-02-09T14:55:59.930Z,100889.09
2023-02-09T15:01:03.264Z,100896.47
2023-02-09T15:06:06.524Z,100895.72
2023-02-09T15:11:33.311Z,100871.97
2023-02-09T15:16:35.363Z,100888.16
2023-02-09T15:21:37.375Z,100886.16
2023-02-09T15:26:39.536Z,100880.00
2023-02-09T15:31:42.354Z,100891.97
2023-02-09T15:36:44.784Z,100896.00
2023-02-09T15:42:07.180Z,100885.16
2023-02-09T15:47:28.081Z,100883.28
2023-02-09T15:52:32.876Z,100872.78
2023-02-09T15:57:42.392Z,100895.19
2023-02-09T16:02:44.511Z,100890.13
2023-02-09T16:07:46.935Z,100897.53
2023-02-09T16:12:49.067Z,100888.44
2023-02-09T16:17:51.782Z,100872.47
2023-02-09T16:22:56.753Z,100875.53
2023-02-09T16:27:58.844Z,100871.44
2023-02-09T16:33:00.936Z,100875.25
2023-02-09T16:38:03.182Z,100870.69
2023-02-09T16:43:06.077Z,100862.06
2023-02-09T16:48:20.605Z,100854.41
2023-02-09T16:53:36.335Z,100853.97
2023-02-09T16:58:39.185Z,100851.53
2023-02-09T17:03:43.729Z,100833.19
2023-02-09T17:08:46.580Z,100828.31
2023-02-09T17:13:48.961Z,100832.97
2023-02-09T17:18:55.342Z,100830.09
2023-02-09T17:23:57.999Z,100826.06
2023-02-09T17:29:00.018Z,100824.19
2023-02-09T17:34:06.332Z,100807.81
2023-02-09T17:39:11.286Z,100796.81
2023-02-09T17:44:28.887Z,100821.19
2023-02-09T17:49:38.817Z,100813.63
2023-02-09T17:54:40.881Z,100812.09
2023-02-09T17:59:43.449Z,100805.44
2023-02-09T18:04:45.604Z,100795.75
2023-02-09T18:09:47.743Z,100786.78
2023-02-09T18:14:49.824Z,100788.13
2023-02-09T18:19:51.854Z,100777.66
2023-02-09T18:25:00.008Z,100775.03
2023-02-09T18:30:03.184Z,100772.09
2023-02-09T18:35:05.945Z,100769.66
2023-02-09T18:40:08.168Z,100762.13
2023-02-09T18:45:12.584Z,100756.16
2023-02-09T18:50:20.802Z,100743.72
2023-02-09T18:55:24.935Z,100749.31
2023-02-09T19:00:27.284Z,100758.34
2023-02-09T19:05:32.529Z,100732.19
2023-02-09T19:10:36.125Z,100727.19
2023-02-09T19:15:39.198Z,100715.72
2023-02-09T19:20:41.330Z,100736.28
2023-02-09T19:25:43.623Z,100710.31
2023-02-09T19:30:45.697Z,100711.16
2023-02-09T19:35:59.077Z,100681.41
2023-02-09T19:41:11.792Z,100695.78
2023-02-09T19:46:13.896Z,100695.97
2023-02-09T19:51:16.406Z,100686.56
2023-02-09T19:56:23.586Z,100684.59
2023-02-09T20:01:27.069Z,100680.47
2023-02-09T20:06:30.951Z,100666.88
2023-02-09T20:11:33.673Z,100661.91
2023-02-09T20:16:35.796Z,100651.78
2023-02-09T20:21:37.997Z,100647.19
2023-02-09T20:26:41.251Z,100627.00
2023-02-09T20:31:43.537Z,100644.78
2023-02-09T20:36:48.264Z,100633.75
2023-02-09T20:42:15.216Z,100626.25
2023-02-09T20:47:17.838Z,100638.78
2023-02-09T20:52:19.883Z,100630.28
2023-02-09T20:57:24.854Z,100631.59
2023-02-09T21:02:27.785Z,100629.44
2023-02-09T21:07:29.823Z,100620.28
2023-02-09T21:12:31.876Z,100622.44
2023-02-09T21:17:34.289Z,100613.34
2023-02-09T21:22:36.313Z,100614.44
2023-02-09T21:27:39.162Z,100620.31
2023-02-09T21:32:41.234Z,100604.72
2023-02-09T21:37:43.329Z,100602.47
2023-02-09T21:42:45.349Z,100587.19
2023-02-09T21:47:47.395Z,100583.91
2023-02-09T21:52:49.955Z,100564.44
2023-02-09T21:57:52.018Z,100575.91
2023-02-09T22:02:54.833Z,100553.75
2023-02-09T22:07:56.858Z,100567.50
2023-02-09T22:12:58.943Z,100570.28
2023-02-09T22:18:00.966Z,100548.72
2023-02-09T22:23:02.979Z,100539.41
2023-02-09T22:28:05.923Z,100526.88
2023-02-09T22:33:08.052Z,100526.97
2023-02-09T22:38:10.103Z,100502.53
2023-02-09T22:43:12.099Z,100518.84
2023-02-09T22:48:14.101Z,100511.88
2023-02-09T22:53:16.202Z,100504.47
2023-02-09T22:58:18.207Z,100492.00
2023-02-09T23:03:20.192Z,100491.06
2023-02-09T23:08:23.113Z,100478.75
2023-02-09T23:13:25.171Z,100472.78
2023-02-09T23:18:27.220Z,100461.31
2023-02-09T23:23:29.796Z,100449.53
2023-02-09T23:28:32.004Z,100434.44
2023-02-09T23:33:36.251Z,100434.81
2023-02-09T23:38:38.426Z,100436.22
2023-02-09T23:43:40.622Z,100429.31
2023-02-09T23:48:44.642Z,100410.38
2023-02-09T23:53:47.771Z,100401.78
2023-02-09T23:58:52.082Z,100380.44
